Gambell, Alaska
Current Conditions -  °F | °C
As of 5:56 AM on Saturday 01 Nov 2014 (Local Time) from PAGM Reporting Station
Overcast Overcast  
Wind Chill: 12°   Ceiling: 3100
Heat Index: 28°   Visibility: 10mi
Dew Point: 18°   Wind: 36mph
Humidity: 64%   Direction: 30°NNE
Pressure: 29.39"   Gusts: 39mph
Location:  63.78°N, 171.74°W
Report Text: PAGM 011356Z AUTO 03031G34KT 10SM OVC031 M02/M08 A2939 RMK AO1
Loading
Personal Weather Stations






























Interactive Weather Map
Tropical Storm Tracking
New forecast layout! Learn more

10-Day Weather Forecast

Advertisements
Track Severe Weather on mobile